sensor_id;sensor_type;location;lat;lon;timestamp;P1;durP1;ratioP1;P2;durP2;ratioP2
1204;SDS011;592;48.764;9.174;2022-09-28T00:00:58;3.20;;;1.10;;
1204;SDS011;592;48.764;9.174;2022-09-28T00:03:26;3.80;;;1.40;;
1204;SDS011;592;48.764;9.174;2022-09-28T00:05:59;3.40;;;1.20;;
1204;SDS011;592;48.764;9.174;2022-09-28T00:08:26;6.20;;;1.50;;
1204;SDS011;592;48.764;9.174;2022-09-28T00:10:53;5.10;;;1.33;;
1204;SDS011;592;48.764;9.174;2022-09-28T00:13:20;5.90;;;1.30;;
1204;SDS011;592;48.764;9.174;2022-09-28T00:15:57;4.60;;;1.73;;
1204;SDS011;592;48.764;9.174;2022-09-28T00:18:25;4.27;;;1.30;;
1204;SDS011;592;48.764;9.174;2022-09-28T00:20:59;2.90;;;1.00;;
1204;SDS011;592;48.764;9.174;2022-09-28T00:23:27;3.40;;;1.40;;
1204;SDS011;592;48.764;9.174;2022-09-28T00:25:53;3.30;;;1.30;;
1204;SDS011;592;48.764;9.174;2022-09-28T00:28:20;3.50;;;1.40;;
1204;SDS011;592;48.764;9.174;2022-09-28T00:30:47;3.30;;;1.20;;
1204;SDS011;592;48.764;9.174;2022-09-28T00:33:13;3.47;;;1.23;;
1204;SDS011;592;48.764;9.174;2022-09-28T00:35:41;3.43;;;1.00;;
1204;SDS011;592;48.764;9.174;2022-09-28T00:38:08;3.40;;;1.20;;
1204;SDS011;592;48.764;9.174;2022-09-28T00:40:35;3.30;;;1.00;;
1204;SDS011;592;48.764;9.174;2022-09-28T00:43:15;4.37;;;1.07;;
1204;SDS011;592;48.764;9.174;2022-09-28T00:45:43;3.57;;;1.20;;
1204;SDS011;592;48.764;9.174;2022-09-28T00:48:10;3.37;;;1.43;;
1204;SDS011;592;48.764;9.174;2022-09-28T00:50:37;7.03;;;1.67;;
1204;SDS011;592;48.764;9.174;2022-09-28T00:53:07;3.30;;;1.27;;
1204;SDS011;592;48.764;9.174;2022-09-28T00:55:39;4.20;;;1.30;;
1204;SDS011;592;48.764;9.174;2022-09-28T00:58:12;6.00;;;1.33;;
1204;SDS011;592;48.764;9.174;2022-09-28T01:00:44;4.10;;;1.20;;
1204;SDS011;592;48.764;9.174;2022-09-28T01:03:12;3.07;;;1.20;;
1204;SDS011;592;48.764;9.174;2022-09-28T01:05:39;3.93;;;1.20;;
1204;SDS011;592;48.764;9.174;2022-09-28T01:08:07;6.53;;;1.13;;
1204;SDS011;592;48.764;9.174;2022-09-28T01:10:35;4.73;;;1.20;;
1204;SDS011;592;48.764;9.174;2022-09-28T01:13:04;4.53;;;1.10;;
1204;SDS011;592;48.764;9.174;2022-09-28T01:15:31;6.13;;;1.20;;
1204;SDS011;592;48.764;9.174;2022-09-28T01:18:06;3.47;;;1.23;;
1204;SDS011;592;48.764;9.174;2022-09-28T01:20:50;4.50;;;1.10;;
1204;SDS011;592;48.764;9.174;2022-09-28T01:23:34;2.90;;;1.10;;
1204;SDS011;592;48.764;9.174;2022-09-28T01:26:17;4.20;;;1.30;;
1204;SDS011;592;48.764;9.174;2022-09-28T01:29:13;3.40;;;1.30;;
1204;SDS011;592;48.764;9.174;2022-09-28T01:31:44;3.00;;;1.50;;
1204;SDS011;592;48.764;9.174;2022-09-28T01:34:16;3.90;;;1.20;;
1204;SDS011;592;48.764;9.174;2022-09-28T01:36:49;5.30;;;1.43;;
1204;SDS011;592;48.764;9.174;2022-09-28T01:39:21;4.30;;;1.30;;
1204;SDS011;592;48.764;9.174;2022-09-28T01:41:52;3.97;;;1.13;;
1204;SDS011;592;48.764;9.174;2022-09-28T01:44:21;4.70;;;1.43;;
1204;SDS011;592;48.764;9.174;2022-09-28T01:46:51;4.13;;;1.40;;
1204;SDS011;592;48.764;9.174;2022-09-28T01:49:19;4.10;;;1.30;;
1204;SDS011;592;48.764;9.174;2022-09-28T01:51:51;6.43;;;1.40;;
1204;SDS011;592;48.764;9.174;2022-09-28T01:54:23;4.37;;;1.60;;
1204;SDS011;592;48.764;9.174;2022-09-28T01:56:57;5.00;;;1.60;;
1204;SDS011;592;48.764;9.174;2022-09-28T01:59:31;4.53;;;1.40;;
1204;SDS011;592;48.764;9.174;2022-09-28T02:02:01;7.07;;;1.70;;
1204;SDS011;592;48.764;9.174;2022-09-28T02:04:32;7.67;;;1.43;;
1204;SDS011;592;48.764;9.174;2022-09-28T02:07:05;3.97;;;1.40;;
1204;SDS011;592;48.764;9.174;2022-09-28T02:09:36;5.53;;;1.80;;
1204;SDS011;592;48.764;9.174;2022-09-28T02:12:09;6.40;;;2.17;;
1204;SDS011;592;48.764;9.174;2022-09-28T02:14:39;4.97;;;1.30;;
1204;SDS011;592;48.764;9.174;2022-09-28T02:17:09;9.70;;;2.03;;
1204;SDS011;592;48.764;9.174;2022-09-28T02:19:37;6.63;;;1.57;;
1204;SDS011;592;48.764;9.174;2022-09-28T02:22:07;4.90;;;1.30;;
1204;SDS011;592;48.764;9.174;2022-09-28T02:24:39;8.90;;;2.03;;
1204;SDS011;592;48.764;9.174;2022-09-28T02:27:12;4.97;;;1.47;;
1204;SDS011;592;48.764;9.174;2022-09-28T02:29:42;5.07;;;1.10;;
1204;SDS011;592;48.764;9.174;2022-09-28T02:32:08;4.70;;;1.30;;
1204;SDS011;592;48.764;9.174;2022-09-28T02:34:36;7.27;;;1.60;;
1204;SDS011;592;48.764;9.174;2022-09-28T02:37:02;6.50;;;1.40;;
1204;SDS011;592;48.764;9.174;2022-09-28T02:39:29;3.53;;;1.33;;
1204;SDS011;592;48.764;9.174;2022-09-28T02:42:00;6.13;;;1.50;;
1204;SDS011;592;48.764;9.174;2022-09-28T02:44:48;6.37;;;1.37;;
1204;SDS011;592;48.764;9.174;2022-09-28T02:47:25;6.37;;;2.13;;
1204;SDS011;592;48.764;9.174;2022-09-28T02:50:06;6.17;;;1.60;;
1204;SDS011;592;48.764;9.174;2022-09-28T02:52:50;6.37;;;1.50;;
1204;SDS011;592;48.764;9.174;2022-09-28T02:55:33;4.90;;;1.90;;
1204;SDS011;592;48.764;9.174;2022-09-28T02:58:17;5.07;;;1.93;;
1204;SDS011;592;48.764;9.174;2022-09-28T03:00:53;6.40;;;2.23;;
1204;SDS011;592;48.764;9.174;2022-09-28T03:03:28;5.57;;;1.70;;
1204;SDS011;592;48.764;9.174;2022-09-28T03:06:00;3.80;;;1.37;;
1204;SDS011;592;48.764;9.174;2022-09-28T03:08:31;5.00;;;1.60;;
1204;SDS011;592;48.764;9.174;2022-09-28T03:11:02;6.03;;;2.03;;
1204;SDS011;592;48.764;9.174;2022-09-28T03:13:32;4.60;;;1.50;;
1204;SDS011;592;48.764;9.174;2022-09-28T03:16:08;10.23;;;1.73;;
1204;SDS011;592;48.764;9.174;2022-09-28T03:18:36;5.37;;;1.30;;
1204;SDS011;592;48.764;9.174;2022-09-28T03:21:03;4.90;;;1.60;;
1204;SDS011;592;48.764;9.174;2022-09-28T03:23:30;4.77;;;1.77;;
1204;SDS011;592;48.764;9.174;2022-09-28T03:25:57;4.13;;;1.70;;
1204;SDS011;592;48.764;9.174;2022-09-28T03:28:24;4.50;;;1.53;;
1204;SDS011;592;48.764;9.174;2022-09-28T03:30:52;4.80;;;2.00;;
1204;SDS011;592;48.764;9.174;2022-09-28T03:33:20;3.60;;;1.40;;
1204;SDS011;592;48.764;9.174;2022-09-28T03:35:47;3.90;;;1.17;;
1204;SDS011;592;48.764;9.174;2022-09-28T03:38:15;5.13;;;1.77;;
1204;SDS011;592;48.764;9.174;2022-09-28T03:40:42;6.23;;;1.67;;
1204;SDS011;592;48.764;9.174;2022-09-28T03:43:09;6.07;;;1.70;;
1204;SDS011;592;48.764;9.174;2022-09-28T03:45:35;3.80;;;1.53;;
1204;SDS011;592;48.764;9.174;2022-09-28T03:48:02;5.03;;;1.70;;
1204;SDS011;592;48.764;9.174;2022-09-28T03:50:30;4.43;;;1.50;;
1204;SDS011;592;48.764;9.174;2022-09-28T03:53:00;3.97;;;2.07;;
1204;SDS011;592;48.764;9.174;2022-09-28T03:55:27;4.20;;;1.50;;
1204;SDS011;592;48.764;9.174;2022-09-28T03:57:54;4.60;;;1.70;;
1204;SDS011;592;48.764;9.174;2022-09-28T04:00:21;4.20;;;1.50;;
1204;SDS011;592;48.764;9.174;2022-09-28T04:02:48;9.80;;;2.10;;
1204;SDS011;592;48.764;9.174;2022-09-28T04:05:14;5.87;;;2.30;;
1204;SDS011;592;48.764;9.174;2022-09-28T04:07:42;5.40;;;2.07;;
1204;SDS011;592;48.764;9.174;2022-09-28T04:10:09;4.07;;;1.70;;
1204;SDS011;592;48.764;9.174;2022-09-28T04:12:36;6.30;;;2.13;;
1204;SDS011;592;48.764;9.174;2022-09-28T04:15:03;4.73;;;1.53;;
1204;SDS011;592;48.764;9.174;2022-09-28T04:17:30;5.13;;;1.13;;
1204;SDS011;592;48.764;9.174;2022-09-28T04:19:57;4.33;;;1.50;;
1204;SDS011;592;48.764;9.174;2022-09-28T04:22:23;3.73;;;1.30;;
1204;SDS011;592;48.764;9.174;2022-09-28T04:24:51;8.27;;;1.40;;
1204;SDS011;592;48.764;9.174;2022-09-28T04:27:18;2.77;;;0.97;;
1204;SDS011;592;48.764;9.174;2022-09-28T04:30:02;3.27;;;1.00;;
1204;SDS011;592;48.764;9.174;2022-09-28T04:32:29;3.20;;;1.03;;
1204;SDS011;592;48.764;9.174;2022-09-28T04:34:56;2.93;;;1.00;;
1204;SDS011;592;48.764;9.174;2022-09-28T04:37:23;5.27;;;1.33;;
1204;SDS011;592;48.764;9.174;2022-09-28T04:39:49;5.30;;;1.27;;
1204;SDS011;592;48.764;9.174;2022-09-28T04:42:17;6.67;;;1.20;;
1204;SDS011;592;48.764;9.174;2022-09-28T04:44:44;3.33;;;1.00;;
1204;SDS011;592;48.764;9.174;2022-09-28T04:47:11;2.97;;;0.93;;
1204;SDS011;592;48.764;9.174;2022-09-28T04:49:37;3.20;;;1.00;;
1204;SDS011;592;48.764;9.174;2022-09-28T04:52:04;2.63;;;0.90;;
1204;SDS011;592;48.764;9.174;2022-09-28T04:54:31;3.03;;;0.97;;
1204;SDS011;592;48.764;9.174;2022-09-28T04:56:59;2.63;;;0.83;;
1204;SDS011;592;48.764;9.174;2022-09-28T04:59:27;4.00;;;1.00;;
1204;SDS011;592;48.764;9.174;2022-09-28T05:01:54;6.50;;;1.30;;
1204;SDS011;592;48.764;9.174;2022-09-28T05:04:20;7.50;;;1.50;;
1204;SDS011;592;48.764;9.174;2022-09-28T05:06:47;3.30;;;1.10;;
1204;SDS011;592;48.764;9.174;2022-09-28T05:09:14;2.60;;;0.90;;
1204;SDS011;592;48.764;9.174;2022-09-28T05:11:40;2.83;;;1.07;;
1204;SDS011;592;48.764;9.174;2022-09-28T05:14:10;3.90;;;1.03;;
1204;SDS011;592;48.764;9.174;2022-09-28T05:16:37;4.40;;;0.97;;
1204;SDS011;592;48.764;9.174;2022-09-28T05:19:03;2.97;;;1.10;;
1204;SDS011;592;48.764;9.174;2022-09-28T05:21:31;6.00;;;1.00;;
1204;SDS011;592;48.764;9.174;2022-09-28T05:23:57;3.20;;;1.20;;
1204;SDS011;592;48.764;9.174;2022-09-28T05:26:24;3.57;;;1.03;;
1204;SDS011;592;48.764;9.174;2022-09-28T05:28:51;3.27;;;1.10;;
1204;SDS011;592;48.764;9.174;2022-09-28T05:31:19;5.50;;;1.20;;
1204;SDS011;592;48.764;9.174;2022-09-28T05:33:46;3.23;;;1.47;;
1204;SDS011;592;48.764;9.174;2022-09-28T05:36:13;3.30;;;1.00;;
1204;SDS011;592;48.764;9.174;2022-09-28T05:38:39;3.20;;;1.00;;
1204;SDS011;592;48.764;9.174;2022-09-28T05:41:06;3.10;;;1.03;;
1204;SDS011;592;48.764;9.174;2022-09-28T05:43:33;4.77;;;1.33;;
1204;SDS011;592;48.764;9.174;2022-09-28T05:46:00;4.53;;;1.00;;
1204;SDS011;592;48.764;9.174;2022-09-28T05:48:28;2.73;;;0.90;;
1204;SDS011;592;48.764;9.174;2022-09-28T05:50:55;4.10;;;1.30;;
1204;SDS011;592;48.764;9.174;2022-09-28T05:53:22;4.00;;;1.00;;
1204;SDS011;592;48.764;9.174;2022-09-28T05:55:49;3.47;;;1.60;;
1204;SDS011;592;48.764;9.174;2022-09-28T05:58:16;3.33;;;1.10;;
1204;SDS011;592;48.764;9.174;2022-09-28T06:00:43;4.63;;;1.10;;
1204;SDS011;592;48.764;9.174;2022-09-28T06:03:10;3.93;;;1.00;;
1204;SDS011;592;48.764;9.174;2022-09-28T06:05:39;3.53;;;1.20;;
1204;SDS011;592;48.764;9.174;2022-09-28T06:08:07;3.70;;;1.37;;
1204;SDS011;592;48.764;9.174;2022-09-28T06:10:35;4.50;;;1.33;;
1204;SDS011;592;48.764;9.174;2022-09-28T06:13:03;3.13;;;1.37;;
1204;SDS011;592;48.764;9.174;2022-09-28T06:15:33;7.37;;;1.83;;
1204;SDS011;592;48.764;9.174;2022-09-28T06:18:01;4.13;;;1.27;;
1204;SDS011;592;48.764;9.174;2022-09-28T06:20:31;3.80;;;1.20;;
1204;SDS011;592;48.764;9.174;2022-09-28T06:23:01;3.47;;;1.40;;
1204;SDS011;592;48.764;9.174;2022-09-28T06:25:28;3.23;;;1.20;;
1204;SDS011;592;48.764;9.174;2022-09-28T06:27:55;6.63;;;1.77;;
1204;SDS011;592;48.764;9.174;2022-09-28T06:30:23;4.60;;;1.37;;
1204;SDS011;592;48.764;9.174;2022-09-28T06:32:52;3.40;;;1.10;;
1204;SDS011;592;48.764;9.174;2022-09-28T06:35:20;4.40;;;1.30;;
1204;SDS011;592;48.764;9.174;2022-09-28T06:37:48;4.03;;;1.70;;
1204;SDS011;592;48.764;9.174;2022-09-28T06:40:17;4.27;;;1.27;;
1204;SDS011;592;48.764;9.174;2022-09-28T06:42:53;6.13;;;1.53;;
1204;SDS011;592;48.764;9.174;2022-09-28T06:45:20;3.63;;;1.37;;
1204;SDS011;592;48.764;9.174;2022-09-28T06:47:51;3.40;;;1.30;;
1204;SDS011;592;48.764;9.174;2022-09-28T06:50:20;3.73;;;1.33;;
1204;SDS011;592;48.764;9.174;2022-09-28T06:52:48;3.77;;;1.60;;
1204;SDS011;592;48.764;9.174;2022-09-28T06:55:17;13.00;;;2.20;;
1204;SDS011;592;48.764;9.174;2022-09-28T06:57:44;5.70;;;2.47;;
1204;SDS011;592;48.764;9.174;2022-09-28T07:00:13;5.30;;;1.53;;
1204;SDS011;592;48.764;9.174;2022-09-28T07:02:40;4.50;;;2.07;;
1204;SDS011;592;48.764;9.174;2022-09-28T07:05:08;6.73;;;1.73;;
1204;SDS011;592;48.764;9.174;2022-09-28T07:07:37;5.27;;;1.83;;
1204;SDS011;592;48.764;9.174;2022-09-28T07:10:07;5.78;;;2.20;;
1204;SDS011;592;48.764;9.174;2022-09-28T07:12:37;5.83;;;2.07;;
1204;SDS011;592;48.764;9.174;2022-09-28T07:15:05;5.13;;;1.60;;
1204;SDS011;592;48.764;9.174;2022-09-28T07:17:33;3.90;;;1.80;;
1204;SDS011;592;48.764;9.174;2022-09-28T07:20:00;3.83;;;1.70;;
1204;SDS011;592;48.764;9.174;2022-09-28T07:22:27;5.47;;;2.03;;
1204;SDS011;592;48.764;9.174;2022-09-28T07:24:53;5.90;;;2.20;;
1204;SDS011;592;48.764;9.174;2022-09-28T07:27:21;8.20;;;2.30;;
1204;SDS011;592;48.764;9.174;2022-09-28T07:29:50;8.03;;;2.30;;
1204;SDS011;592;48.764;9.174;2022-09-28T07:32:18;6.03;;;2.27;;
1204;SDS011;592;48.764;9.174;2022-09-28T07:34:44;4.83;;;2.20;;
1204;SDS011;592;48.764;9.174;2022-09-28T07:37:12;5.30;;;2.27;;
1204;SDS011;592;48.764;9.174;2022-09-28T07:39:39;6.43;;;2.40;;
1204;SDS011;592;48.764;9.174;2022-09-28T07:42:24;5.33;;;2.23;;
1204;SDS011;592;48.764;9.174;2022-09-28T07:44:55;6.83;;;1.87;;
1204;SDS011;592;48.764;9.174;2022-09-28T07:47:22;5.23;;;1.70;;
1204;SDS011;592;48.764;9.174;2022-09-28T07:49:51;4.73;;;2.17;;
1204;SDS011;592;48.764;9.174;2022-09-28T07:52:19;6.83;;;2.20;;
1204;SDS011;592;48.764;9.174;2022-09-28T07:54:47;5.70;;;1.80;;
1204;SDS011;592;48.764;9.174;2022-09-28T07:57:16;9.33;;;2.43;;
1204;SDS011;592;48.764;9.174;2022-09-28T07:59:42;5.93;;;1.80;;
1204;SDS011;592;48.764;9.174;2022-09-28T08:02:11;5.23;;;2.00;;
1204;SDS011;592;48.764;9.174;2022-09-28T08:04:38;7.37;;;1.93;;
1204;SDS011;592;48.764;9.174;2022-09-28T08:07:06;4.43;;;2.10;;
1204;SDS011;592;48.764;9.174;2022-09-28T08:09:34;5.37;;;2.47;;
1204;SDS011;592;48.764;9.174;2022-09-28T08:12:01;4.30;;;2.10;;
1204;SDS011;592;48.764;9.174;2022-09-28T08:14:28;4.67;;;2.20;;
1204;SDS011;592;48.764;9.174;2022-09-28T08:16:58;5.53;;;2.13;;
1204;SDS011;592;48.764;9.174;2022-09-28T08:19:26;6.27;;;2.80;;
1204;SDS011;592;48.764;9.174;2022-09-28T08:22:15;5.00;;;2.10;;
1204;SDS011;592;48.764;9.174;2022-09-28T08:24:42;5.00;;;2.27;;
1204;SDS011;592;48.764;9.174;2022-09-28T08:27:09;4.80;;;2.37;;
1204;SDS011;592;48.764;9.174;2022-09-28T08:29:36;5.03;;;2.00;;
1204;SDS011;592;48.764;9.174;2022-09-28T08:32:03;5.23;;;2.10;;
1204;SDS011;592;48.764;9.174;2022-09-28T08:34:33;6.57;;;2.17;;
1204;SDS011;592;48.764;9.174;2022-09-28T08:37:00;5.43;;;1.90;;
1204;SDS011;592;48.764;9.174;2022-09-28T08:39:27;7.50;;;2.50;;
1204;SDS011;592;48.764;9.174;2022-09-28T08:41:56;4.67;;;1.90;;
1204;SDS011;592;48.764;9.174;2022-09-28T08:44:31;3.90;;;1.90;;
1204;SDS011;592;48.764;9.174;2022-09-28T08:47:06;6.13;;;2.03;;
1204;SDS011;592;48.764;9.174;2022-09-28T08:50:01;5.13;;;2.10;;
1204;SDS011;592;48.764;9.174;2022-09-28T08:52:30;6.23;;;2.37;;
1204;SDS011;592;48.764;9.174;2022-09-28T08:55:03;6.07;;;2.37;;
1204;SDS011;592;48.764;9.174;2022-09-28T08:57:37;6.53;;;2.53;;
1204;SDS011;592;48.764;9.174;2022-09-28T09:00:13;5.07;;;2.33;;
1204;SDS011;592;48.764;9.174;2022-09-28T09:02:44;8.10;;;2.77;;
1204;SDS011;592;48.764;9.174;2022-09-28T09:05:13;6.70;;;2.20;;
1204;SDS011;592;48.764;9.174;2022-09-28T09:07:53;4.33;;;2.00;;
1204;SDS011;592;48.764;9.174;2022-09-28T09:10:38;5.90;;;2.63;;
1204;SDS011;592;48.764;9.174;2022-09-28T09:13:21;5.70;;;2.20;;
1204;SDS011;592;48.764;9.174;2022-09-28T09:16:08;7.47;;;2.27;;
1204;SDS011;592;48.764;9.174;2022-09-28T09:18:46;7.63;;;2.50;;
1204;SDS011;592;48.764;9.174;2022-09-28T09:21:22;6.30;;;2.07;;
1204;SDS011;592;48.764;9.174;2022-09-28T09:24:02;6.33;;;2.33;;
1204;SDS011;592;48.764;9.174;2022-09-28T09:26:38;5.00;;;2.27;;
1204;SDS011;592;48.764;9.174;2022-09-28T09:29:15;10.13;;;2.47;;
1204;SDS011;592;48.764;9.174;2022-09-28T09:32:01;4.10;;;1.90;;
1204;SDS011;592;48.764;9.174;2022-09-28T09:34:52;6.40;;;2.37;;
1204;SDS011;592;48.764;9.174;2022-09-28T09:37:48;4.30;;;2.10;;
1204;SDS011;592;48.764;9.174;2022-09-28T09:40:30;7.13;;;2.40;;
1204;SDS011;592;48.764;9.174;2022-09-28T09:43:09;7.93;;;2.73;;
1204;SDS011;592;48.764;9.174;2022-09-28T09:46:00;6.20;;;2.20;;
1204;SDS011;592;48.764;9.174;2022-09-28T09:48:37;5.90;;;2.40;;
1204;SDS011;592;48.764;9.174;2022-09-28T09:51:12;7.47;;;2.53;;
1204;SDS011;592;48.764;9.174;2022-09-28T09:53:47;5.90;;;2.53;;
1204;SDS011;592;48.764;9.174;2022-09-28T09:56:20;5.03;;;2.53;;
1204;SDS011;592;48.764;9.174;2022-09-28T09:58:52;5.00;;;2.60;;
1204;SDS011;592;48.764;9.174;2022-09-28T10:01:26;5.90;;;2.80;;
1204;SDS011;592;48.764;9.174;2022-09-28T10:03:58;5.50;;;2.43;;
1204;SDS011;592;48.764;9.174;2022-09-28T10:06:27;7.73;;;3.30;;
1204;SDS011;592;48.764;9.174;2022-09-28T10:09:00;6.50;;;3.10;;
1204;SDS011;592;48.764;9.174;2022-09-28T10:11:30;6.10;;;2.60;;
1204;SDS011;592;48.764;9.174;2022-09-28T10:14:00;6.60;;;2.90;;
1204;SDS011;592;48.764;9.174;2022-09-28T10:16:27;5.50;;;2.90;;
1204;SDS011;592;48.764;9.174;2022-09-28T10:18:55;6.00;;;2.90;;
1204;SDS011;592;48.764;9.174;2022-09-28T10:21:21;5.70;;;2.77;;
1204;SDS011;592;48.764;9.174;2022-09-28T10:23:52;6.40;;;2.80;;
1204;SDS011;592;48.764;9.174;2022-09-28T10:26:23;7.60;;;2.47;;
1204;SDS011;592;48.764;9.174;2022-09-28T10:28:55;5.80;;;2.40;;
1204;SDS011;592;48.764;9.174;2022-09-28T10:31:38;4.63;;;2.70;;
1204;SDS011;592;48.764;9.174;2022-09-28T10:34:07;7.40;;;3.30;;
1204;SDS011;592;48.764;9.174;2022-09-28T10:36:48;5.13;;;2.60;;
1204;SDS011;592;48.764;9.174;2022-09-28T10:39:21;5.23;;;2.70;;
1204;SDS011;592;48.764;9.174;2022-09-28T10:41:55;8.40;;;3.00;;
1204;SDS011;592;48.764;9.174;2022-09-28T10:44:24;13.30;;;3.10;;
1204;SDS011;592;48.764;9.174;2022-09-28T10:46:55;5.63;;;3.13;;
1204;SDS011;592;48.764;9.174;2022-09-28T10:49:24;8.20;;;3.03;;
1204;SDS011;592;48.764;9.174;2022-09-28T10:51:53;5.97;;;2.70;;
1204;SDS011;592;48.764;9.174;2022-09-28T10:54:21;5.47;;;2.93;;
1204;SDS011;592;48.764;9.174;2022-09-28T10:56:49;7.03;;;3.20;;
1204;SDS011;592;48.764;9.174;2022-09-28T10:59:32;5.90;;;2.77;;
1204;SDS011;592;48.764;9.174;2022-09-28T11:02:03;7.20;;;2.77;;
1204;SDS011;592;48.764;9.174;2022-09-28T11:04:42;5.80;;;2.50;;
1204;SDS011;592;48.764;9.174;2022-09-28T11:07:16;7.50;;;3.15;;
1204;SDS011;592;48.764;9.174;2022-09-28T11:09:45;5.97;;;2.70;;
1204;SDS011;592;48.764;9.174;2022-09-28T11:12:13;6.17;;;2.70;;
1204;SDS011;592;48.764;9.174;2022-09-28T11:14:45;8.00;;;2.70;;
1204;SDS011;592;48.764;9.174;2022-09-28T11:17:17;5.97;;;2.60;;
1204;SDS011;592;48.764;9.174;2022-09-28T11:19:50;4.57;;;2.43;;
1204;SDS011;592;48.764;9.174;2022-09-28T11:22:21;6.30;;;2.57;;
1204;SDS011;592;48.764;9.174;2022-09-28T11:24:50;6.77;;;2.90;;
1204;SDS011;592;48.764;9.174;2022-09-28T11:27:20;6.63;;;2.70;;
1204;SDS011;592;48.764;9.174;2022-09-28T11:29:52;4.43;;;2.00;;
1204;SDS011;592;48.764;9.174;2022-09-28T11:32:22;5.80;;;2.10;;
1204;SDS011;592;48.764;9.174;2022-09-28T11:34:51;14.50;;;2.50;;
1204;SDS011;592;48.764;9.174;2022-09-28T11:37:27;9.23;;;2.73;;
1204;SDS011;592;48.764;9.174;2022-09-28T11:40:07;10.67;;;2.87;;
1204;SDS011;592;48.764;9.174;2022-09-28T11:42:49;12.10;;;3.10;;
1204;SDS011;592;48.764;9.174;2022-09-28T11:45:34;4.33;;;2.23;;
1204;SDS011;592;48.764;9.174;2022-09-28T11:48:09;7.20;;;2.20;;
1204;SDS011;592;48.764;9.174;2022-09-28T11:50:41;10.83;;;2.30;;
1204;SDS011;592;48.764;9.174;2022-09-28T11:53:14;4.53;;;1.97;;
1204;SDS011;592;48.764;9.174;2022-09-28T11:55:47;5.50;;;2.30;;
1204;SDS011;592;48.764;9.174;2022-09-28T11:58:21;4.57;;;2.30;;
1204;SDS011;592;48.764;9.174;2022-09-28T12:00:55;6.60;;;2.20;;
1204;SDS011;592;48.764;9.174;2022-09-28T12:03:28;8.93;;;2.13;;
1204;SDS011;592;48.764;9.174;2022-09-28T12:06:07;6.20;;;2.20;;
1204;SDS011;592;48.764;9.174;2022-09-28T12:08:41;3.33;;;1.73;;
1204;SDS011;592;48.764;9.174;2022-09-28T12:11:16;4.23;;;1.83;;
1204;SDS011;592;48.764;9.174;2022-09-28T12:13:48;4.97;;;2.17;;
1204;SDS011;592;48.764;9.174;2022-09-28T12:16:20;5.67;;;2.37;;
1204;SDS011;592;48.764;9.174;2022-09-28T12:18:50;6.60;;;2.20;;
1204;SDS011;592;48.764;9.174;2022-09-28T12:21:25;6.10;;;1.90;;
1204;SDS011;592;48.764;9.174;2022-09-28T12:23:59;5.47;;;2.00;;
1204;SDS011;592;48.764;9.174;2022-09-28T12:26:32;5.43;;;2.03;;
1204;SDS011;592;48.764;9.174;2022-09-28T12:29:04;6.07;;;1.80;;
1204;SDS011;592;48.764;9.174;2022-09-28T12:31:38;4.93;;;1.40;;
1204;SDS011;592;48.764;9.174;2022-09-28T12:34:11;6.23;;;2.07;;
1204;SDS011;592;48.764;9.174;2022-09-28T12:36:40;4.30;;;1.97;;
1204;SDS011;592;48.764;9.174;2022-09-28T12:39:24;5.60;;;1.70;;
1204;SDS011;592;48.764;9.174;2022-09-28T12:42:14;8.07;;;2.17;;
1204;SDS011;592;48.764;9.174;2022-09-28T12:45:01;6.77;;;2.07;;
1204;SDS011;592;48.764;9.174;2022-09-28T12:47:52;5.83;;;1.70;;
1204;SDS011;592;48.764;9.174;2022-09-28T12:50:34;6.60;;;2.50;;
1204;SDS011;592;48.764;9.174;2022-09-28T12:53:15;4.80;;;1.77;;
1204;SDS011;592;48.764;9.174;2022-09-28T12:55:57;3.83;;;1.60;;
1204;SDS011;592;48.764;9.174;2022-09-28T12:58:37;5.87;;;1.80;;
1204;SDS011;592;48.764;9.174;2022-09-28T13:01:17;8.80;;;1.83;;
1204;SDS011;592;48.764;9.174;2022-09-28T13:03:58;3.80;;;1.50;;
1204;SDS011;592;48.764;9.174;2022-09-28T13:06:36;5.70;;;1.70;;
1204;SDS011;592;48.764;9.174;2022-09-28T13:09:17;4.33;;;1.50;;
1204;SDS011;592;48.764;9.174;2022-09-28T13:11:54;4.20;;;1.77;;
1204;SDS011;592;48.764;9.174;2022-09-28T13:14:50;6.27;;;1.90;;
1204;SDS011;592;48.764;9.174;2022-09-28T13:17:54;5.53;;;1.80;;
1204;SDS011;592;48.764;9.174;2022-09-28T13:20:34;4.00;;;1.40;;
1204;SDS011;592;48.764;9.174;2022-09-28T13:23:12;8.27;;;1.80;;
1204;SDS011;592;48.764;9.174;2022-09-28T13:25:43;9.60;;;1.97;;
1204;SDS011;592;48.764;9.174;2022-09-28T13:28:16;6.33;;;1.70;;
1204;SDS011;592;48.764;9.174;2022-09-28T13:30:45;5.67;;;1.60;;
1204;SDS011;592;48.764;9.174;2022-09-28T13:33:15;6.13;;;1.70;;
1204;SDS011;592;48.764;9.174;2022-09-28T13:35:48;3.93;;;1.40;;
1204;SDS011;592;48.764;9.174;2022-09-28T13:41:19;5.73;;;1.80;;
1204;SDS011;592;48.764;9.174;2022-09-28T13:46:51;11.63;;;1.90;;
1204;SDS011;592;48.764;9.174;2022-09-28T13:49:30;8.90;;;2.07;;
1204;SDS011;592;48.764;9.174;2022-09-28T13:52:15;5.43;;;1.73;;
1204;SDS011;592;48.764;9.174;2022-09-28T13:55:00;4.47;;;1.70;;
1204;SDS011;592;48.764;9.174;2022-09-28T13:57:39;5.10;;;1.70;;
1204;SDS011;592;48.764;9.174;2022-09-28T14:00:14;4.63;;;1.30;;
1204;SDS011;592;48.764;9.174;2022-09-28T14:02:45;5.47;;;1.50;;
1204;SDS011;592;48.764;9.174;2022-09-28T14:08:44;5.47;;;1.70;;
1204;SDS011;592;48.764;9.174;2022-09-28T14:11:41;6.63;;;1.90;;
1204;SDS011;592;48.764;9.174;2022-09-28T14:14:23;6.10;;;1.80;;
1204;SDS011;592;48.764;9.174;2022-09-28T14:17:04;3.90;;;1.57;;
1204;SDS011;592;48.764;9.174;2022-09-28T14:20:08;4.73;;;1.70;;
1204;SDS011;592;48.764;9.174;2022-09-28T14:22:41;6.80;;;1.87;;
1204;SDS011;592;48.764;9.174;2022-09-28T14:25:23;4.80;;;1.73;;
1204;SDS011;592;48.764;9.174;2022-09-28T14:27:58;5.47;;;1.63;;
1204;SDS011;592;48.764;9.174;2022-09-28T14:30:32;5.07;;;1.80;;
1204;SDS011;592;48.764;9.174;2022-09-28T14:33:14;4.40;;;1.60;;
1204;SDS011;592;48.764;9.174;2022-09-28T14:35:48;6.40;;;2.00;;
1204;SDS011;592;48.764;9.174;2022-09-28T14:38:20;4.27;;;1.60;;
1204;SDS011;592;48.764;9.174;2022-09-28T14:41:10;6.20;;;1.87;;
1204;SDS011;592;48.764;9.174;2022-09-28T14:43:59;4.27;;;1.60;;
1204;SDS011;592;48.764;9.174;2022-09-28T14:46:29;4.63;;;1.80;;
1204;SDS011;592;48.764;9.174;2022-09-28T14:48:57;7.33;;;2.27;;
1204;SDS011;592;48.764;9.174;2022-09-28T14:54:38;3.47;;;1.40;;
1204;SDS011;592;48.764;9.174;2022-09-28T14:57:14;4.60;;;1.60;;
1204;SDS011;592;48.764;9.174;2022-09-28T14:59:43;5.33;;;2.03;;
1204;SDS011;592;48.764;9.174;2022-09-28T15:02:13;3.10;;;1.27;;
1204;SDS011;592;48.764;9.174;2022-09-28T15:04:47;5.10;;;1.53;;
1204;SDS011;592;48.764;9.174;2022-09-28T15:07:18;8.40;;;1.90;;
1204;SDS011;592;48.764;9.174;2022-09-28T15:09:47;4.87;;;1.60;;
1204;SDS011;592;48.764;9.174;2022-09-28T15:12:17;4.70;;;1.63;;
1204;SDS011;592;48.764;9.174;2022-09-28T15:14:46;4.50;;;1.70;;
1204;SDS011;592;48.764;9.174;2022-09-28T15:17:17;4.93;;;1.30;;
1204;SDS011;592;48.764;9.174;2022-09-28T15:19:50;5.17;;;1.40;;
1204;SDS011;592;48.764;9.174;2022-09-28T15:22:26;4.13;;;1.20;;
1204;SDS011;592;48.764;9.174;2022-09-28T15:24:54;4.47;;;1.40;;
1204;SDS011;592;48.764;9.174;2022-09-28T15:27:24;3.47;;;1.27;;
1204;SDS011;592;48.764;9.174;2022-09-28T15:30:00;4.07;;;1.33;;
1204;SDS011;592;48.764;9.174;2022-09-28T15:32:41;4.17;;;1.30;;
1204;SDS011;592;48.764;9.174;2022-09-28T15:35:08;4.90;;;1.47;;
1204;SDS011;592;48.764;9.174;2022-09-28T15:37:38;4.17;;;1.20;;
1204;SDS011;592;48.764;9.174;2022-09-28T15:40:09;4.60;;;1.40;;
1204;SDS011;592;48.764;9.174;2022-09-28T15:42:40;4.53;;;1.57;;
1204;SDS011;592;48.764;9.174;2022-09-28T15:45:20;4.47;;;1.70;;
1204;SDS011;592;48.764;9.174;2022-09-28T15:47:52;3.90;;;1.50;;
1204;SDS011;592;48.764;9.174;2022-09-28T15:50:23;4.23;;;1.40;;
1204;SDS011;592;48.764;9.174;2022-09-28T15:52:52;4.07;;;1.20;;
1204;SDS011;592;48.764;9.174;2022-09-28T15:55:23;3.80;;;1.57;;
1204;SDS011;592;48.764;9.174;2022-09-28T15:58:03;3.60;;;1.40;;
1204;SDS011;592;48.764;9.174;2022-09-28T16:00:31;6.20;;;1.87;;
1204;SDS011;592;48.764;9.174;2022-09-28T16:02:59;4.37;;;1.50;;
1204;SDS011;592;48.764;9.174;2022-09-28T16:05:33;4.33;;;1.70;;
1204;SDS011;592;48.764;9.174;2022-09-28T16:08:10;4.53;;;1.40;;
1204;SDS011;592;48.764;9.174;2022-09-28T16:10:53;4.27;;;1.70;;
1204;SDS011;592;48.764;9.174;2022-09-28T16:13:26;2.80;;;1.00;;